createdAt,value
2018-02-06T00:00:58.413Z,1008.59
2018-02-06T00:02:13.044Z,1008.58
2018-02-06T00:03:28.317Z,1008.64
2018-02-06T00:04:42.975Z,1008.52
2018-02-06T00:05:57.940Z,1008.57
2018-02-06T00:07:13.020Z,1008.42
2018-02-06T00:08:28.197Z,1008.49
2018-02-06T00:09:42.894Z,1008.46
2018-02-06T00:10:57.287Z,1008.42
2018-02-06T00:12:11.435Z,1008.4
2018-02-06T00:13:25.867Z,1008.39
2018-02-06T00:14:40.903Z,1008.37
2018-02-06T00:15:55.838Z,1008.38
2018-02-06T00:17:10.541Z,1008.34
2018-02-06T00:18:26.151Z,1008.33
2018-02-06T00:19:40.836Z,1008.29
2018-02-06T00:20:55.209Z,1008.39
2018-02-06T00:22:10.008Z,1008.35
2018-02-06T00:23:25.280Z,1008.43
2018-02-06T00:24:39.900Z,1008.4
2018-02-06T00:25:54.803Z,1008.35
2018-02-06T00:27:09.503Z,1008.3
2018-02-06T00:28:24.411Z,1008.32
2018-02-06T00:29:40.349Z,1008.31
2018-02-06T00:30:55.236Z,1008.31
2018-02-06T00:32:10.142Z,1008.32
2018-02-06T00:33:25.013Z,1008.28
2018-02-06T00:34:39.767Z,1008.25
2018-02-06T00:35:54.746Z,1008.2
2018-02-06T00:37:09.622Z,1008.24
2018-02-06T00:38:24.283Z,1008.24
2018-02-06T00:39:38.940Z,1008.22
2018-02-06T00:40:53.861Z,1008.16
2018-02-06T00:42:07.652Z,1008.17
2018-02-06T00:43:22.336Z,1008.15
2018-02-06T00:44:37.203Z,1008.13
2018-02-06T00:45:52.339Z,1008.08
2018-02-06T00:47:07.292Z,1008.09
2018-02-06T00:48:21.950Z,1008.1
2018-02-06T00:49:36.530Z,1008.04
2018-02-06T00:50:50.730Z,1008.05
2018-02-06T00:52:05.336Z,1008
2018-02-06T00:53:19.195Z,1007.99
2018-02-06T00:54:33.805Z,1007.95
2018-02-06T00:55:48.501Z,1008
2018-02-06T00:57:02.832Z,1007.97
2018-02-06T00:58:18.291Z,1007.97
2018-02-06T00:59:33.173Z,1007.9
2018-02-06T01:00:47.550Z,1007.9
2018-02-06T01:02:03.696Z,1007.89
2018-02-06T01:03:18.398Z,1007.91
2018-02-06T01:04:32.995Z,1007.84
2018-02-06T01:05:47.418Z,1007.85
2018-02-06T01:07:02.259Z,1007.79
2018-02-06T01:08:17.458Z,1007.8
2018-02-06T01:09:32.575Z,1007.81
2018-02-06T01:10:47.963Z,1007.74
2018-02-06T01:12:02.851Z,1007.78
2018-02-06T01:13:17.470Z,1007.74
2018-02-06T01:14:32.208Z,1007.69
2018-02-06T01:15:46.558Z,1007.64
2018-02-06T01:17:02.302Z,1007.7
2018-02-06T01:18:17.220Z,1007.75
2018-02-06T01:19:32.499Z,1007.5
2018-02-06T01:20:47.622Z,1007.63
2018-02-06T01:22:02.230Z,1007.54
2018-02-06T01:23:16.539Z,1007.47
2018-02-06T01:24:31.262Z,1007.52
2018-02-06T01:25:45.584Z,1007.42
2018-02-06T01:27:00.159Z,1007.51
2018-02-06T01:28:15.567Z,1007.49
2018-02-06T01:29:30.073Z,1007.35
2018-02-06T01:30:44.701Z,1007.46
2018-02-06T01:31:59.243Z,1007.35
2018-02-06T01:33:14.488Z,1007.47
2018-02-06T01:34:29.016Z,1007.36
2018-02-06T01:35:44.021Z,1007.33
2018-02-06T01:36:58.311Z,1007.34
2018-02-06T01:38:12.963Z,1007.28
2018-02-06T01:39:27.555Z,1007.23
2018-02-06T01:40:41.578Z,1007.24
2018-02-06T01:41:55.655Z,1007.3
2018-02-06T01:43:09.737Z,1007.16
2018-02-06T01:44:24.647Z,1007.25
2018-02-06T01:45:39.213Z,1007.09
2018-02-06T01:46:54.156Z,1007.1
2018-02-06T01:48:09.061Z,1006.96
2018-02-06T01:49:23.347Z,1007.05
2018-02-06T01:50:38.075Z,1007.02
2018-02-06T01:51:52.927Z,1006.97
2018-02-06T01:53:07.893Z,1006.98
2018-02-06T01:54:22.534Z,1007.04
2018-02-06T01:55:37.807Z,1007.01
2018-02-06T01:56:52.633Z,1006.97
2018-02-06T01:58:06.951Z,1006.94
2018-02-06T01:59:21.576Z,1006.91
2018-02-06T02:00:36.095Z,1006.94
2018-02-06T02:01:51.248Z,1006.85
2018-02-06T02:03:05.534Z,1006.76
2018-02-06T02:04:20.091Z,1006.84
2018-02-06T02:05:34.737Z,1006.82
2018-02-06T02:06:49.817Z,1006.84
2018-02-06T02:08:04.668Z,1006.85
2018-02-06T02:09:19.766Z,1006.74
2018-02-06T02:10:35.026Z,1006.7
2018-02-06T02:11:49.618Z,1006.73
2018-02-06T02:13:03.997Z,1006.77
2018-02-06T02:14:18.719Z,1006.75
2018-02-06T02:15:33.748Z,1006.7
2018-02-06T02:16:48.364Z,1006.62
2018-02-06T02:18:03.289Z,1006.66
2018-02-06T02:19:18.107Z,1006.6
2018-02-06T02:20:33.564Z,1006.61
2018-02-06T02:21:48.720Z,1006.69
2018-02-06T02:23:03.310Z,1006.61
2018-02-06T02:24:18.163Z,1006.67
2018-02-06T02:25:32.779Z,1006.59
2018-02-06T02:26:47.924Z,1006.55
2018-02-06T02:28:02.521Z,1006.61
2018-02-06T02:29:17.135Z,1006.63
2018-02-06T02:30:31.657Z,1006.62
2018-02-06T02:31:46.510Z,1006.54
2018-02-06T02:33:00.786Z,1006.52
2018-02-06T02:34:15.058Z,1006.58
2018-02-06T02:35:30.041Z,1006.52
2018-02-06T02:36:45.191Z,1006.49
2018-02-06T02:38:00.043Z,1006.6
2018-02-06T02:39:15.110Z,1006.44
2018-02-06T02:40:29.681Z,1006.51
2018-02-06T04:39:37.919Z,1005.15
2018-02-06T04:40:52.234Z,1005.2
2018-02-06T04:42:07.095Z,1005.19
2018-02-06T04:43:21.511Z,1005.19
2018-02-06T04:44:36.385Z,1005.13
2018-02-06T04:45:51.307Z,1005.11
2018-02-06T04:47:06.226Z,1005.04
2018-02-06T04:48:21.690Z,1005.02
2018-02-06T04:49:36.273Z,1004.96
2018-02-06T04:50:51.512Z,1004.92
2018-02-06T04:52:06.552Z,1004.94
2018-02-06T04:53:20.740Z,1004.88
2018-02-06T04:54:36.071Z,1004.89
2018-02-06T04:55:50.904Z,1004.82
2018-02-06T04:57:06.342Z,1004.77
2018-02-06T04:58:21.339Z,1004.79
2018-02-06T04:59:36.688Z,1004.78
2018-02-06T05:00:50.799Z,1004.79
2018-02-06T05:02:05.948Z,1004.76
2018-02-06T05:03:20.448Z,1004.76
2018-02-06T05:04:35.032Z,1004.76
2018-02-06T05:05:49.355Z,1004.79
2018-02-06T05:07:04.770Z,1004.78
2018-02-06T05:08:19.661Z,1004.87
2018-02-06T05:09:34.156Z,1004.84
2018-02-06T05:10:49.291Z,1004.82
2018-02-06T05:12:04.523Z,1004.82
2018-02-06T05:13:19.395Z,1004.67
2018-02-06T05:14:34.360Z,1004.63
2018-02-06T05:15:49.447Z,1004.59
2018-02-06T05:17:04.342Z,1004.59
2018-02-06T05:18:18.682Z,1004.58
2018-02-06T05:19:34.072Z,1004.58
2018-02-06T05:20:49.328Z,1004.61
2018-02-06T05:22:03.927Z,1004.6
2018-02-06T05:23:18.015Z,1004.53
2018-02-06T05:24:58.268Z,1004.56
2018-02-06T05:26:13.160Z,1004.47
2018-02-06T05:27:27.495Z,1004.49
2018-02-06T05:28:42.349Z,1004.52
2018-02-06T05:29:56.974Z,1004.5
2018-02-06T05:31:12.190Z,1004.48
2018-02-06T05:32:26.816Z,1004.47
2018-02-06T05:33:42.015Z,1004.52
2018-02-06T05:34:56.812Z,1004.47
2018-02-06T05:36:11.919Z,1004.53
2018-02-06T05:37:26.973Z,1004.55
2018-02-06T05:38:41.639Z,1004.44
2018-02-06T05:39:56.437Z,1004.43
2018-02-06T05:41:10.244Z,1004.44
2018-02-06T05:42:25.121Z,1004.46
2018-02-06T05:43:39.871Z,1004.48
2018-02-06T05:44:54.460Z,1004.38
2018-02-06T05:46:09.332Z,1004.34
2018-02-06T05:47:23.758Z,1004.33
2018-02-06T05:48:38.876Z,1004.38
2018-02-06T05:49:54.420Z,1004.33
2018-02-06T05:51:09.365Z,1004.28
2018-02-06T05:52:23.712Z,1004.27
2018-02-06T05:53:38.559Z,1004.2
2018-02-06T05:54:53.503Z,1004.24
2018-02-06T05:56:08.768Z,1004.25
2018-02-06T05:57:23.594Z,1004.28
2018-02-06T05:58:38.820Z,1004.29
2018-02-06T05:59:54.393Z,1004.25
2018-02-06T06:01:08.278Z,1004.24
2018-02-06T06:02:23.720Z,1004.28
2018-02-06T06:03:38.950Z,1004.24
2018-02-06T06:04:54.232Z,1004.28
2018-02-06T06:06:08.576Z,1004.24
2018-02-06T06:07:23.703Z,1004.21
2018-02-06T06:08:38.425Z,1004.29
2018-02-06T06:09:53.733Z,1004.28
2018-02-06T06:11:08.978Z,1004.22
2018-02-06T06:12:24.168Z,1004.32
2018-02-06T06:13:39.581Z,1004.26
2018-02-06T06:14:55.687Z,1004.31
2018-02-06T06:16:10.353Z,1004.33
2018-02-06T06:17:25.334Z,1004.25
2018-02-06T06:18:40.794Z,1004.29
2018-02-06T06:19:55.808Z,1004.31
2018-02-06T06:21:10.973Z,1004.3
2018-02-06T06:22:26.150Z,1004.28
2018-02-06T06:23:40.596Z,1004.28
2018-02-06T06:24:55.369Z,1004.19
2018-02-06T06:26:10.656Z,1004.19
2018-02-06T06:27:25.044Z,1004.22
2018-02-06T06:28:40.345Z,1004.21
2018-02-06T06:29:55.127Z,1004.16
2018-02-06T06:31:10.116Z,1004.18
2018-02-06T06:32:25.324Z,1004.19
2018-02-06T06:33:40.823Z,1004.14
2018-02-06T06:34:56.474Z,1004.09
2018-02-06T06:36:11.666Z,1004.13
2018-02-06T06:37:26.011Z,1004.06
2018-02-06T06:38:41.212Z,1004.12
2018-02-06T06:39:56.861Z,1004.16
2018-02-06T06:41:11.942Z,1004.08
2018-02-06T06:42:27.332Z,1004.01
2018-02-06T06:43:42.550Z,1004.06
2018-02-06T06:44:57.538Z,1004.08
2018-02-06T06:46:12.807Z,1004.11
2018-02-06T06:47:28.255Z,1004.04
2018-02-06T06:48:42.588Z,1003.96
2018-02-06T06:49:57.874Z,1003.97
2018-02-06T06:51:12.650Z,1004
2018-02-06T06:52:28.260Z,1003.97
2018-02-06T06:53:42.859Z,1003.98
2018-02-06T06:54:57.511Z,1003.98
2018-02-06T06:56:11.876Z,1003.96
2018-02-06T06:57:26.884Z,1003.95
2018-02-06T06:58:42.679Z,1003.98
2018-02-06T06:59:57.134Z,1003.92
2018-02-06T07:01:12.013Z,1003.88
2018-02-06T07:02:27.146Z,1003.92
2018-02-06T07:03:42.334Z,1003.9
2018-02-06T07:04:58.092Z,1003.89
2018-02-06T07:06:13.547Z,1003.85
2018-02-06T07:07:29.069Z,1003.87
2018-02-06T07:08:44.235Z,1003.85
2018-02-06T07:09:59.000Z,1003.82
2018-02-06T07:11:13.761Z,1003.81
2018-02-06T07:12:28.392Z,1003.75
2018-02-06T07:13:43.600Z,1003.77
2018-02-06T07:14:57.983Z,1003.77
2018-02-06T07:16:13.633Z,1003.68
2018-02-06T07:17:28.351Z,1003.63
2018-02-06T07:18:43.615Z,1003.67
2018-02-06T07:19:58.573Z,1003.73
2018-02-06T07:21:13.231Z,1003.72
2018-02-06T07:22:28.346Z,1003.7
2018-02-06T07:23:43.640Z,1003.74
2018-02-06T07:24:58.268Z,1003.64
2018-02-06T07:26:12.472Z,1003.61
2018-02-06T07:27:27.628Z,1003.64
2018-02-06T07:28:42.530Z,1003.56
2018-02-06T07:29:58.041Z,1003.56
2018-02-06T07:31:13.657Z,1003.61
2018-02-06T07:32:34.066Z,1003.59
2018-02-06T07:33:49.236Z,1003.61
2018-02-06T07:35:04.583Z,1003.55
2018-02-06T07:36:19.652Z,1003.59
2018-02-06T07:37:34.415Z,1003.63
2018-02-06T07:38:48.854Z,1003.6
2018-02-06T07:40:03.769Z,1003.57
2018-02-06T07:41:19.244Z,1003.64
2018-02-06T07:42:34.455Z,1003.63
2018-02-06T07:43:49.643Z,1003.66
2018-02-06T07:45:03.543Z,1003.61
2018-02-06T07:46:17.853Z,1003.55
2018-02-06T07:47:32.869Z,1003.61
2018-02-06T07:48:47.891Z,1003.58
2018-02-06T07:50:02.523Z,1003.56
2018-02-06T07:51:16.987Z,1003.51
2018-02-06T07:52:31.437Z,1003.48
2018-02-06T07:53:46.682Z,1003.54
2018-02-06T07:55:02.281Z,1003.52
2018-02-06T07:56:17.354Z,1003.52
2018-02-06T07:57:32.465Z,1003.52
2018-02-06T07:58:46.542Z,1003.47
2018-02-06T08:00:01.796Z,1003.56
2018-02-06T08:01:16.967Z,1003.51
2018-02-06T08:02:32.076Z,1003.46
2018-02-06T08:03:46.715Z,1003.48
2018-02-06T08:05:01.462Z,1003.47
2018-02-06T08:06:15.902Z,1003.39
2018-02-06T08:07:31.551Z,1003.41
2018-02-06T08:08:46.520Z,1003.4
2018-02-06T08:10:01.804Z,1003.43
2018-02-06T08:11:16.725Z,1003.42
2018-02-06T08:12:31.388Z,1003.49
2018-02-06T08:13:46.872Z,1003.39
2018-02-06T08:15:01.536Z,1003.38
2018-02-06T08:16:16.509Z,1003.43
2018-02-06T08:17:31.216Z,1003.51
2018-02-06T08:18:45.869Z,1003.5
2018-02-06T08:20:00.860Z,1003.46
2018-02-06T08:21:16.290Z,1003.43
2018-02-06T08:22:31.263Z,1003.39
2018-02-06T08:23:45.948Z,1003.44
2018-02-06T08:25:00.599Z,1003.46
2018-02-06T08:26:15.699Z,1003.47
2018-02-06T08:27:30.335Z,1003.4
2018-02-06T08:28:44.937Z,1003.46
2018-02-06T08:30:00.331Z,1003.47
2018-02-06T08:31:15.276Z,1003.48
2018-02-06T08:32:30.313Z,1003.39
2018-02-06T08:33:45.235Z,1003.39
2018-02-06T08:34:59.911Z,1003.32
2018-02-06T08:36:15.639Z,1003.34
2018-02-06T08:37:30.306Z,1003.39
2018-02-06T08:38:45.220Z,1003.41
2018-02-06T08:40:00.680Z,1003.32
2018-02-06T08:41:15.729Z,1003.24
2018-02-06T08:42:30.948Z,1003.23
2018-02-06T08:43:45.867Z,1003.34
2018-02-06T08:45:00.913Z,1003.32
2018-02-06T08:46:15.647Z,1003.34
2018-02-06T08:47:30.329Z,1003.27
2018-02-06T08:48:44.733Z,1003.27
2018-02-06T08:49:59.378Z,1003.3
2018-02-06T08:51:15.714Z,1003.3
2018-02-06T08:52:30.878Z,1003.22
2018-02-06T08:53:45.798Z,1003.24
2018-02-06T08:55:00.377Z,1003.23
2018-02-06T08:56:15.580Z,1003.22
2018-02-06T08:57:31.096Z,1003.17
2018-02-06T08:58:46.255Z,1003.23
2018-02-06T09:00:00.910Z,1003.22
2018-02-06T09:01:15.596Z,1003.24
2018-02-06T09:02:30.498Z,1003.21
2018-02-06T09:03:45.618Z,1003.29
2018-02-06T09:05:00.272Z,1003.33
2018-02-06T09:06:15.527Z,1003.23
2018-02-06T09:07:30.792Z,1003.28
2018-02-06T09:08:45.759Z,1003.27
2018-02-06T09:10:01.083Z,1003.26
2018-02-06T09:11:16.051Z,1003.17
2018-02-06T09:12:31.643Z,1003.2
2018-02-06T09:13:46.268Z,1003.25
2018-02-06T09:15:01.491Z,1003.16
2018-02-06T09:16:16.745Z,1003.14
2018-02-06T09:17:32.494Z,1003.26
2018-02-06T09:18:47.892Z,1003.21
2018-02-06T09:20:02.576Z,1003.2
2018-02-06T09:21:17.262Z,1003.2
2018-02-06T09:22:32.691Z,1003.18
2018-02-06T09:23:47.654Z,1003.18
2018-02-06T09:25:01.982Z,1003.13
2018-02-06T09:26:17.582Z,1003.19
2018-02-06T09:27:32.964Z,1003.15
2018-02-06T09:28:47.356Z,1003.18
2018-02-06T09:30:01.751Z,1003.22
2018-02-06T09:31:16.748Z,1003.18
2018-02-06T09:32:31.870Z,1003.07
2018-02-06T09:33:47.168Z,1003.07
2018-02-06T09:35:03.068Z,1003.12
2018-02-06T09:36:17.987Z,1003.04
2018-02-06T09:37:32.886Z,1003.08
2018-02-06T09:38:47.501Z,1003.05
2018-02-06T09:40:02.177Z,1003.05
2018-02-06T09:41:17.403Z,1003.07
2018-02-06T09:42:31.766Z,1003.11
2018-02-06T09:43:46.184Z,1003.05
2018-02-06T09:45:01.175Z,1003.03
2018-02-06T09:46:15.576Z,1003.06
2018-02-06T09:47:30.541Z,1003.04
2018-02-06T09:48:45.544Z,1003
2018-02-06T09:50:00.411Z,1003.01
2018-02-06T09:51:14.592Z,1003
2018-02-06T09:52:29.304Z,1003
2018-02-06T09:53:44.251Z,1002.95
2018-02-06T09:54:59.163Z,1002.99
2018-02-06T09:56:13.214Z,1002.95
2018-02-06T09:57:28.527Z,1002.95
2018-02-06T09:58:43.480Z,1002.97
2018-02-06T09:59:58.115Z,1002.92
2018-02-06T10:01:12.750Z,1002.91
2018-02-06T10:02:27.350Z,1002.93
2018-02-06T10:03:41.789Z,1002.88
2018-02-06T10:04:56.971Z,1002.9
2018-02-06T10:06:12.158Z,1002.81
2018-02-06T10:07:27.103Z,1002.84
2018-02-06T10:08:42.318Z,1002.81
2018-02-06T10:09:57.206Z,1002.83
2018-02-06T10:11:12.704Z,1002.79
2018-02-06T10:12:27.939Z,1002.78
2018-02-06T10:13:42.574Z,1002.76
2018-02-06T10:14:57.966Z,1002.74
2018-02-06T10:16:12.398Z,1002.75
2018-02-06T10:17:27.722Z,1002.81
2018-02-06T10:18:43.489Z,1002.75
2018-02-06T10:19:57.249Z,1002.74
2018-02-06T10:21:11.935Z,1002.8
2018-02-06T10:22:26.589Z,1002.78
2018-02-06T10:23:41.308Z,1002.78
2018-02-06T10:24:55.966Z,1002.75
2018-02-06T10:26:10.633Z,1002.7
2018-02-06T10:27:25.811Z,1002.76
2018-02-06T10:28:40.533Z,1002.77
2018-02-06T10:29:55.167Z,1002.71
2018-02-06T10:31:10.618Z,1002.74
2018-02-06T10:32:25.390Z,1002.75
2018-02-06T10:33:39.739Z,1002.75
2018-02-06T10:34:54.314Z,1002.69
2018-02-06T10:36:08.946Z,1002.71
2018-02-06T10:37:24.416Z,1002.64
2018-02-06T10:38:39.702Z,1002.62
2018-02-06T10:39:54.686Z,1002.64
2018-02-06T10:41:09.584Z,1002.63
2018-02-06T10:42:24.265Z,1002.55
2018-02-06T10:43:38.851Z,1002.51
2018-02-06T10:44:53.745Z,1002.5
2018-02-06T10:46:08.837Z,1002.46
2018-02-06T10:47:24.085Z,1002.43
2018-02-06T10:48:38.939Z,1002.49
2018-02-06T10:49:55.287Z,1002.41
2018-02-06T10:51:10.169Z,1002.39
2018-02-06T10:52:25.340Z,1002.39
2018-02-06T10:53:39.908Z,1002.4
2018-02-06T10:54:54.891Z,1002.35
2018-02-06T10:56:09.846Z,1002.39
2018-02-06T10:57:24.772Z,1002.34
2018-02-06T10:58:39.419Z,1002.31
2018-02-06T10:59:53.577Z,1002.33
2018-02-06T11:01:07.988Z,1002.32
2018-02-06T11:02:23.267Z,1002.35
2018-02-06T11:03:38.663Z,1002.28
2018-02-06T11:04:53.325Z,1002.3
2018-02-06T11:06:07.984Z,1002.33
2018-02-06T11:07:22.462Z,1002.25
2018-02-06T11:08:37.452Z,1002.29
2018-02-06T11:09:53.128Z,1002.31
2018-02-06T11:11:07.953Z,1002.25
2018-02-06T11:12:22.710Z,1002.23
2018-02-06T11:13:36.904Z,1002.22
2018-02-06T11:14:51.762Z,1002.19
2018-02-06T11:16:06.275Z,1002.19
2018-02-06T11:17:20.945Z,1002.09
2018-02-06T11:18:35.863Z,1002.16
2018-02-06T11:19:50.655Z,1002.12
2018-02-06T11:21:05.725Z,1002.09
2018-02-06T11:22:21.229Z,1002.08
2018-02-06T11:23:36.383Z,1002.04
2018-02-06T11:24:50.795Z,1001.99
2018-02-06T11:26:05.737Z,1002
2018-02-06T11:27:20.139Z,1001.96
2018-02-06T11:28:34.542Z,1001.95
2018-02-06T11:29:49.565Z,1001.94
2018-02-06T11:31:03.691Z,1001.96
2018-02-06T11:32:18.434Z,1001.87
2018-02-06T11:33:33.200Z,1001.9
2018-02-06T11:34:48.407Z,1001.86
2018-02-06T11:36:03.224Z,1001.9
2018-02-06T11:37:17.974Z,1001.88
2018-02-06T11:38:32.798Z,1001.77
2018-02-06T11:39:47.758Z,1001.81
2018-02-06T11:41:01.895Z,1001.78
2018-02-06T11:42:16.370Z,1001.77
2018-02-06T11:43:31.354Z,1001.79
2018-02-06T11:44:45.942Z,1001.73
2018-02-06T11:46:01.210Z,1001.75
2018-02-06T11:47:15.947Z,1001.77
2018-02-06T11:48:31.143Z,1001.77
2018-02-06T11:49:46.464Z,1001.71
2018-02-06T11:51:00.847Z,1001.73
2018-02-06T11:52:16.518Z,1001.67
2018-02-06T11:53:31.656Z,1001.66
2018-02-06T11:54:47.720Z,1001.64
2018-02-06T11:56:02.514Z,1001.71
2018-02-06T11:57:17.191Z,1001.67
2018-02-06T11:58:31.665Z,1001.64
2018-02-06T11:59:45.799Z,1001.62
2018-02-06T12:01:01.125Z,1001.59
2018-02-06T12:02:15.789Z,1001.59
2018-02-06T12:03:30.486Z,1001.59
2018-02-06T12:04:45.368Z,1001.47
2018-02-06T12:06:00.872Z,1001.49
2018-02-06T12:07:16.165Z,1001.43
2018-02-06T12:08:30.648Z,1001.42
2018-02-06T12:09:45.563Z,1001.42
2018-02-06T12:11:01.038Z,1001.41
2018-02-06T12:12:16.497Z,1001.39
2018-02-06T12:13:31.861Z,1001.36
2018-02-06T12:14:46.232Z,1001.45
2018-02-06T12:16:01.328Z,1001.41
2018-02-06T12:17:16.258Z,1001.34
2018-02-06T12:18:31.466Z,1001.32
2018-02-06T12:19:46.440Z,1001.4
2018-02-06T12:21:02.048Z,1001.32
2018-02-06T12:22:16.478Z,1001.32
2018-02-06T12:23:32.030Z,1001.43
2018-02-06T12:24:47.053Z,1001.33
2018-02-06T12:26:02.627Z,1001.36
2018-02-06T12:27:18.005Z,1001.28
2018-02-06T12:28:33.438Z,1001.24
2018-02-06T12:29:48.931Z,1001.17
2018-02-06T12:31:04.432Z,1001.19
2018-02-06T12:32:19.252Z,1001.22
2018-02-06T12:33:33.980Z,1001.15
2018-02-06T12:34:48.910Z,1001.19
2018-02-06T12:36:04.306Z,1001.14
2018-02-06T12:37:18.992Z,1001.11
2018-02-06T12:38:34.276Z,1001.06
2018-02-06T12:39:49.567Z,1001.06
2018-02-06T12:41:04.732Z,1001.02
2018-02-06T12:42:19.232Z,1000.97
2018-02-06T12:43:34.153Z,1000.9
2018-02-06T12:44:48.846Z,1000.89
2018-02-06T12:46:03.956Z,1000.94
2018-02-06T12:47:19.202Z,1000.88
2018-02-06T12:48:34.501Z,1000.93
2018-02-06T12:49:49.713Z,1000.85
2018-02-06T12:51:04.825Z,1000.86
2018-02-06T12:52:19.741Z,1000.84
2018-02-06T12:53:34.434Z,1000.8
2018-02-06T12:54:49.619Z,1000.79
2018-02-06T12:56:04.121Z,1000.9
2018-02-06T12:57:18.804Z,1000.74
2018-02-06T12:58:33.868Z,1000.78
2018-02-06T12:59:49.340Z,1000.74
2018-02-06T13:01:05.135Z,1000.69
2018-02-06T13:02:20.221Z,1000.69
2018-02-06T13:03:35.165Z,1000.7
2018-02-06T13:04:50.136Z,1000.67
2018-02-06T13:06:05.268Z,1000.6
2018-02-06T13:07:20.603Z,1000.74
2018-02-06T13:08:35.343Z,1000.61
2018-02-06T13:09:50.531Z,1000.57
2018-02-06T13:11:05.629Z,1000.64
2018-02-06T13:12:20.384Z,1000.62
2018-02-06T13:13:35.407Z,1000.67
2018-02-06T13:14:50.412Z,1000.66
2018-02-06T13:16:05.509Z,1000.65
2018-02-06T13:17:20.318Z,1000.68
2018-02-06T13:18:34.693Z,1000.63
2018-02-06T13:19:50.546Z,1000.56
2018-02-06T13:21:05.396Z,1000.52
2018-02-06T13:22:20.436Z,1000.54
2018-02-06T13:23:36.271Z,1000.55
2018-02-06T13:24:50.925Z,1000.55
2018-02-06T13:26:05.988Z,1000.48
2018-02-06T13:27:20.597Z,1000.56
2018-02-06T13:28:35.256Z,1000.53
2018-02-06T13:29:49.995Z,1000.53
2018-02-06T13:31:05.390Z,1000.54
2018-02-06T13:32:20.803Z,1000.54
2018-02-06T13:33:35.501Z,1000.48
2018-02-06T13:34:50.348Z,1000.5
2018-02-06T13:36:06.094Z,1000.54
2018-02-06T13:37:20.738Z,1000.48
2018-02-06T13:38:35.694Z,1000.5
2018-02-06T13:39:51.136Z,1000.55
2018-02-06T13:41:05.911Z,1000.5
2018-02-06T13:42:21.181Z,1000.46
2018-02-06T13:43:36.382Z,1000.43
2018-02-06T13:44:52.144Z,1000.44
2018-02-06T13:46:07.781Z,1000.45
2018-02-06T13:47:22.460Z,1000.47
2018-02-06T13:48:37.427Z,1000.55
2018-02-06T13:49:52.101Z,1000.53
2018-02-06T13:51:07.501Z,1000.5
2018-02-06T13:52:22.725Z,1000.48
2018-02-06T13:53:37.997Z,1000.45
2018-02-06T13:54:53.033Z,1000.48
2018-02-06T13:56:07.854Z,1000.4
2018-02-06T13:57:23.146Z,1000.34
2018-02-06T13:58:38.367Z,1000.35
2018-02-06T13:59:53.374Z,1000.34
2018-02-06T14:01:07.874Z,1000.32
2018-02-06T14:02:22.901Z,1000.34
2018-02-06T14:03:38.181Z,1000.34
2018-02-06T14:04:52.526Z,1000.32
2018-02-06T14:06:07.490Z,1000.23
2018-02-06T14:07:22.150Z,1000.3
2018-02-06T14:08:37.199Z,1000.32
2018-02-06T14:09:51.893Z,1000.33
2018-02-06T14:11:06.347Z,1000.3
2018-02-06T14:12:21.252Z,1000.24
2018-02-06T14:13:35.385Z,1000.4
2018-02-06T14:14:50.242Z,1000.31
2018-02-06T14:16:05.039Z,1000.19
2018-02-06T14:17:20.521Z,1000.28
2018-02-06T14:18:35.229Z,1000.21
2018-02-06T14:19:50.231Z,1000.15
2018-02-06T14:21:05.184Z,1000.17
2018-02-06T14:22:19.795Z,1000.15
2018-02-06T14:23:35.126Z,1000.13
2018-02-06T14:24:49.774Z,1000.18
2018-02-06T14:26:04.851Z,1000.1
2018-02-06T14:27:19.672Z,1000.17
2018-02-06T14:28:34.693Z,1000.18
2018-02-06T14:29:49.414Z,1000.15
2018-02-06T14:31:04.692Z,1000.14
2018-02-06T14:32:18.783Z,1000
2018-02-06T14:33:33.230Z,1000.07
2018-02-06T14:34:49.276Z,1000.13
2018-02-06T14:36:04.595Z,1000.1
2018-02-06T14:37:32.103Z,1000.11
2018-02-06T14:38:46.746Z,1000.08
2018-02-06T14:40:01.199Z,1000.1
2018-02-06T14:41:16.285Z,1000.1
2018-02-06T14:42:31.812Z,1000.15
2018-02-06T14:43:46.809Z,1000.12
2018-02-06T14:45:02.123Z,1000.12
2018-02-06T14:46:17.080Z,1000.03
2018-02-06T14:47:32.123Z,999.97
2018-02-06T14:48:46.735Z,999.95
2018-02-06T14:50:00.818Z,999.98
2018-02-06T14:51:15.834Z,999.97
2018-02-06T14:52:31.111Z,1000.01
2018-02-06T14:53:46.091Z,999.94
2018-02-06T14:55:00.695Z,999.98
2018-02-06T14:56:15.160Z,999.93
2018-02-06T14:57:30.576Z,999.9
2018-02-06T14:58:46.132Z,999.9
2018-02-06T15:00:01.515Z,999.94
2018-02-06T15:01:16.758Z,999.94
2018-02-06T15:02:31.723Z,999.96
2018-02-06T15:03:46.706Z,999.86
2018-02-06T15:05:01.093Z,999.9
2018-02-06T15:06:15.862Z,999.93
2018-02-06T15:07:30.532Z,999.91
2018-02-06T15:08:44.914Z,999.97
2018-02-06T15:10:00.803Z,999.94
2018-02-06T15:11:15.478Z,999.96
2018-02-06T15:12:30.371Z,999.96
2018-02-06T15:13:45.315Z,999.94
2018-02-06T15:14:59.935Z,999.89
2018-02-06T15:16:15.217Z,999.91
2018-02-06T15:17:30.151Z,999.89
2018-02-06T15:18:45.456Z,999.99
2018-02-06T15:20:00.123Z,999.94
2018-02-06T15:21:14.317Z,1000
2018-02-06T15:22:30.167Z,999.97
2018-02-06T15:23:44.904Z,999.96
2018-02-06T15:24:59.098Z,999.98
2018-02-06T15:26:14.528Z,999.92
2018-02-06T15:27:30.190Z,999.93
2018-02-06T15:28:44.968Z,999.99
2018-02-06T15:29:59.509Z,999.97
2018-02-06T15:31:14.082Z,999.98
2018-02-06T15:32:28.957Z,999.98
2018-02-06T15:33:43.677Z,1000.03
2018-02-06T15:35:00.233Z,1000.02
2018-02-06T15:36:15.041Z,1000.01
2018-02-06T15:37:30.130Z,1000.03
2018-02-06T15:38:45.088Z,999.98
2018-02-06T15:39:59.538Z,1000.08
2018-02-06T15:41:14.140Z,1000.01
2018-02-06T15:42:29.613Z,1000.07
2018-02-06T15:43:44.980Z,1000.02
2018-02-06T15:44:59.691Z,1000.01
2018-02-06T15:46:14.685Z,999.98
2018-02-06T15:47:28.967Z,1000.02
2018-02-06T15:48:43.438Z,999.88
2018-02-06T15:49:58.699Z,999.87
2018-02-06T15:51:13.328Z,999.84
2018-02-06T15:52:28.881Z,999.91
2018-02-06T15:53:44.544Z,999.84
2018-02-06T15:54:59.532Z,999.86
2018-02-06T15:56:14.298Z,999.84
2018-02-06T15:57:29.772Z,999.89
2018-02-06T15:58:44.423Z,999.86
2018-02-06T15:59:59.701Z,999.89
2018-02-06T16:01:14.944Z,999.93
2018-02-06T16:02:29.142Z,999.9
2018-02-06T16:03:44.288Z,999.9
2018-02-06T16:04:58.674Z,999.89
2018-02-06T16:06:14.019Z,999.91
2018-02-06T16:07:28.819Z,999.83
2018-02-06T16:08:43.014Z,999.84
2018-02-06T16:09:57.957Z,999.88
2018-02-06T16:11:12.996Z,999.85
2018-02-06T16:12:27.985Z,999.87
2018-02-06T16:13:42.847Z,999.88
2018-02-06T16:14:58.458Z,999.89
2018-02-06T16:16:12.857Z,999.85
2018-02-06T16:17:27.586Z,999.91
2018-02-06T16:18:42.674Z,999.86
2018-02-06T16:19:57.386Z,999.87
2018-02-06T16:21:13.086Z,999.91
2018-02-06T16:28:40.259Z,999.93
2018-02-06T16:29:55.254Z,999.98
2018-02-06T16:31:09.944Z,999.95
2018-02-06T16:32:24.982Z,999.92
2018-02-06T16:33:39.767Z,999.93
2018-02-06T16:34:54.907Z,999.93
2018-02-06T16:36:09.617Z,999.85
2018-02-06T16:37:24.569Z,999.84
2018-02-06T16:38:39.277Z,999.82
2018-02-06T16:39:54.403Z,999.82
2018-02-06T16:41:09.487Z,999.83
2018-02-06T16:42:24.506Z,999.84
2018-02-06T16:43:39.336Z,999.83
2018-02-06T16:44:54.280Z,999.85
2018-02-06T16:46:08.952Z,999.91
2018-02-06T16:47:23.982Z,999.98
2018-02-06T16:48:38.429Z,999.89
2018-02-06T16:49:53.705Z,999.95
2018-02-06T16:51:08.159Z,999.94
2018-02-06T16:52:23.183Z,999.91
2018-02-06T16:53:38.191Z,999.92
2018-02-06T16:54:53.969Z,999.93
2018-02-06T16:56:09.020Z,999.92
2018-02-06T16:57:23.868Z,999.97
2018-02-06T16:58:38.958Z,999.9
2018-02-06T16:59:54.050Z,999.96
2018-02-06T17:01:08.584Z,999.9
2018-02-06T17:02:23.553Z,999.96
2018-02-06T17:03:38.672Z,999.91
2018-02-06T17:04:54.291Z,999.96
2018-02-06T17:06:09.085Z,999.92
2018-02-06T17:07:24.356Z,999.98
2018-02-06T17:08:38.904Z,999.99
2018-02-06T17:09:54.435Z,999.96
2018-02-06T17:11:09.690Z,1000.03
2018-02-06T17:12:24.727Z,1000.05
2018-02-06T17:13:41.062Z,1000.09
2018-02-06T17:14:55.987Z,1000.06
2018-02-06T17:16:10.613Z,1000.05
2018-02-06T17:17:25.855Z,1000.09
2018-02-06T17:18:40.085Z,1000.16